sensor_id;sensor_type;location;lat;lon;timestamp;P1;durP1;ratioP1;P2;durP2;ratioP2
72635;SDS011;60679;48.888;15.544;2023-06-24T00:02:19;3.40;;;1.20;;
72635;SDS011;60679;48.888;15.544;2023-06-24T00:04:45;2.70;;;0.67;;
72635;SDS011;60679;48.888;15.544;2023-06-24T00:07:10;2.40;;;0.50;;
72635;SDS011;60679;48.888;15.544;2023-06-24T00:09:35;2.77;;;0.70;;
72635;SDS011;60679;48.888;15.544;2023-06-24T00:12:01;2.30;;;0.40;;
72635;SDS011;60679;48.888;15.544;2023-06-24T00:14:27;2.50;;;0.50;;
72635;SDS011;60679;48.888;15.544;2023-06-24T00:16:53;2.53;;;0.52;;
72635;SDS011;60679;48.888;15.544;2023-06-24T00:19:20;2.50;;;0.50;;
72635;SDS011;60679;48.888;15.544;2023-06-24T00:21:47;2.72;;;0.70;;
72635;SDS011;60679;48.888;15.544;2023-06-24T00:24:13;2.50;;;0.50;;
72635;SDS011;60679;48.888;15.544;2023-06-24T00:26:39;2.72;;;0.50;;
72635;SDS011;60679;48.888;15.544;2023-06-24T00:29:04;2.50;;;0.50;;
72635;SDS011;60679;48.888;15.544;2023-06-24T00:31:29;2.40;;;0.50;;
72635;SDS011;60679;48.888;15.544;2023-06-24T00:33:55;2.50;;;0.60;;
72635;SDS011;60679;48.888;15.544;2023-06-24T00:36:20;2.60;;;0.55;;
72635;SDS011;60679;48.888;15.544;2023-06-24T00:38:46;2.70;;;0.50;;
72635;SDS011;60679;48.888;15.544;2023-06-24T00:41:13;2.42;;;0.43;;
72635;SDS011;60679;48.888;15.544;2023-06-24T00:43:41;2.60;;;0.50;;
72635;SDS011;60679;48.888;15.544;2023-06-24T00:46:06;2.70;;;0.60;;
72635;SDS011;60679;48.888;15.544;2023-06-24T00:48:32;2.70;;;0.70;;
72635;SDS011;60679;48.888;15.544;2023-06-24T00:50:57;2.63;;;0.60;;
72635;SDS011;60679;48.888;15.544;2023-06-24T00:53:24;2.55;;;0.50;;
72635;SDS011;60679;48.888;15.544;2023-06-24T00:55:50;2.65;;;0.60;;
72635;SDS011;60679;48.888;15.544;2023-06-24T00:58:20;2.45;;;0.50;;
72635;SDS011;60679;48.888;15.544;2023-06-24T01:00:47;2.40;;;0.40;;
72635;SDS011;60679;48.888;15.544;2023-06-24T01:03:23;2.60;;;0.60;;
72635;SDS011;60679;48.888;15.544;2023-06-24T01:05:50;2.40;;;0.40;;
72635;SDS011;60679;48.888;15.544;2023-06-24T01:08:15;2.60;;;0.50;;
72635;SDS011;60679;48.888;15.544;2023-06-24T01:10:41;2.30;;;0.47;;
72635;SDS011;60679;48.888;15.544;2023-06-24T01:13:07;2.53;;;0.60;;
72635;SDS011;60679;48.888;15.544;2023-06-24T01:15:33;2.50;;;0.50;;
72635;SDS011;60679;48.888;15.544;2023-06-24T01:21:05;2.90;;;0.80;;
72635;SDS011;60679;48.888;15.544;2023-06-24T01:23:55;2.30;;;0.40;;
72635;SDS011;60679;48.888;15.544;2023-06-24T01:35:00;2.75;;;0.73;;
72635;SDS011;60679;48.888;15.544;2023-06-24T01:37:37;2.30;;;0.40;;
72635;SDS011;60679;48.888;15.544;2023-06-24T01:42:59;2.40;;;0.40;;
72635;SDS011;60679;48.888;15.544;2023-06-24T01:45:29;2.50;;;0.50;;
72635;SDS011;60679;48.888;15.544;2023-06-24T01:48:06;2.75;;;0.80;;
72635;SDS011;60679;48.888;15.544;2023-06-24T01:50:34;2.80;;;0.75;;
72635;SDS011;60679;48.888;15.544;2023-06-24T01:53:01;2.70;;;0.65;;
72635;SDS011;60679;48.888;15.544;2023-06-24T01:55:31;2.50;;;0.60;;
72635;SDS011;60679;48.888;15.544;2023-06-24T01:57:58;2.30;;;0.40;;
72635;SDS011;60679;48.888;15.544;2023-06-24T02:00:27;2.55;;;0.60;;
72635;SDS011;60679;48.888;15.544;2023-06-24T02:02:54;2.30;;;0.30;;
72635;SDS011;60679;48.888;15.544;2023-06-24T02:05:20;2.65;;;0.63;;
72635;SDS011;60679;48.888;15.544;2023-06-24T02:07:47;2.63;;;0.60;;
72635;SDS011;60679;48.888;15.544;2023-06-24T02:10:15;2.40;;;0.50;;
72635;SDS011;60679;48.888;15.544;2023-06-24T02:12:41;2.60;;;0.60;;
72635;SDS011;60679;48.888;15.544;2023-06-24T02:15:08;2.70;;;0.70;;
72635;SDS011;60679;48.888;15.544;2023-06-24T02:17:35;2.50;;;0.57;;
72635;SDS011;60679;48.888;15.544;2023-06-24T02:20:03;2.47;;;0.40;;
72635;SDS011;60679;48.888;15.544;2023-06-24T02:22:31;2.58;;;0.50;;
72635;SDS011;60679;48.888;15.544;2023-06-24T02:24:57;2.93;;;0.77;;
72635;SDS011;60679;48.888;15.544;2023-06-24T02:27:23;2.63;;;0.60;;
72635;SDS011;60679;48.888;15.544;2023-06-24T02:29:49;2.78;;;0.73;;
72635;SDS011;60679;48.888;15.544;2023-06-24T02:32:16;2.40;;;0.40;;
72635;SDS011;60679;48.888;15.544;2023-06-24T02:34:41;2.30;;;0.40;;
72635;SDS011;60679;48.888;15.544;2023-06-24T02:37:07;2.80;;;0.70;;
72635;SDS011;60679;48.888;15.544;2023-06-24T02:39:32;2.60;;;0.60;;
72635;SDS011;60679;48.888;15.544;2023-06-24T02:41:58;2.30;;;0.43;;
72635;SDS011;60679;48.888;15.544;2023-06-24T02:44:23;2.57;;;0.60;;
72635;SDS011;60679;48.888;15.544;2023-06-24T02:46:48;2.80;;;0.60;;
72635;SDS011;60679;48.888;15.544;2023-06-24T02:49:15;2.55;;;0.60;;
72635;SDS011;60679;48.888;15.544;2023-06-24T02:51:43;2.40;;;0.50;;
72635;SDS011;60679;48.888;15.544;2023-06-24T02:54:09;2.30;;;0.38;;
72635;SDS011;60679;48.888;15.544;2023-06-24T02:56:37;2.37;;;0.50;;
72635;SDS011;60679;48.888;15.544;2023-06-24T02:59:08;2.50;;;0.55;;
72635;SDS011;60679;48.888;15.544;2023-06-24T03:01:34;2.55;;;0.55;;
72635;SDS011;60679;48.888;15.544;2023-06-24T03:04:03;2.85;;;0.75;;
72635;SDS011;60679;48.888;15.544;2023-06-24T03:06:30;2.40;;;0.47;;
72635;SDS011;60679;48.888;15.544;2023-06-24T03:08:56;2.50;;;0.60;;
72635;SDS011;60679;48.888;15.544;2023-06-24T03:11:22;2.90;;;0.80;;
72635;SDS011;60679;48.888;15.544;2023-06-24T03:13:47;2.70;;;0.70;;
72635;SDS011;60679;48.888;15.544;2023-06-24T03:16:13;2.60;;;0.60;;
72635;SDS011;60679;48.888;15.544;2023-06-24T03:18:41;2.35;;;0.50;;
72635;SDS011;60679;48.888;15.544;2023-06-24T03:21:08;2.78;;;0.65;;
72635;SDS011;60679;48.888;15.544;2023-06-24T03:23:34;2.90;;;0.70;;
72635;SDS011;60679;48.888;15.544;2023-06-24T03:25:59;2.60;;;0.50;;
72635;SDS011;60679;48.888;15.544;2023-06-24T03:28:25;2.63;;;0.60;;
72635;SDS011;60679;48.888;15.544;2023-06-24T03:30:51;2.40;;;0.40;;
72635;SDS011;60679;48.888;15.544;2023-06-24T03:33:16;2.67;;;0.60;;
72635;SDS011;60679;48.888;15.544;2023-06-24T03:35:44;2.30;;;0.40;;
72635;SDS011;60679;48.888;15.544;2023-06-24T03:38:10;2.50;;;0.50;;
72635;SDS011;60679;48.888;15.544;2023-06-24T03:40:36;2.30;;;0.40;;
72635;SDS011;60679;48.888;15.544;2023-06-24T03:43:02;2.50;;;0.40;;
72635;SDS011;60679;48.888;15.544;2023-06-24T03:45:27;2.50;;;0.40;;
72635;SDS011;60679;48.888;15.544;2023-06-24T03:47:53;2.72;;;0.55;;
72635;SDS011;60679;48.888;15.544;2023-06-24T03:50:18;2.30;;;0.40;;
72635;SDS011;60679;48.888;15.544;2023-06-24T03:52:44;2.60;;;0.57;;
72635;SDS011;60679;48.888;15.544;2023-06-24T03:55:09;2.65;;;0.68;;
72635;SDS011;60679;48.888;15.544;2023-06-24T03:57:36;2.47;;;0.50;;
72635;SDS011;60679;48.888;15.544;2023-06-24T04:00:02;2.67;;;0.60;;
72635;SDS011;60679;48.888;15.544;2023-06-24T04:02:37;2.95;;;0.82;;
72635;SDS011;60679;48.888;15.544;2023-06-24T04:05:03;2.37;;;0.50;;
72635;SDS011;60679;48.888;15.544;2023-06-24T04:07:31;3.00;;;0.85;;
72635;SDS011;60679;48.888;15.544;2023-06-24T04:09:56;2.40;;;0.40;;
72635;SDS011;60679;48.888;15.544;2023-06-24T04:12:22;2.43;;;0.60;;
72635;SDS011;60679;48.888;15.544;2023-06-24T04:14:48;2.53;;;0.40;;
72635;SDS011;60679;48.888;15.544;2023-06-24T04:17:13;2.70;;;0.60;;
72635;SDS011;60679;48.888;15.544;2023-06-24T04:19:38;2.43;;;0.50;;
72635;SDS011;60679;48.888;15.544;2023-06-24T04:22:04;2.70;;;0.70;;
72635;SDS011;60679;48.888;15.544;2023-06-24T04:24:30;2.63;;;0.60;;
72635;SDS011;60679;48.888;15.544;2023-06-24T04:26:56;2.90;;;0.73;;
72635;SDS011;60679;48.888;15.544;2023-06-24T04:29:21;2.50;;;0.40;;
72635;SDS011;60679;48.888;15.544;2023-06-24T04:31:46;2.60;;;0.50;;
72635;SDS011;60679;48.888;15.544;2023-06-24T04:34:12;3.80;;;1.07;;
72635;SDS011;60679;48.888;15.544;2023-06-24T04:36:37;2.80;;;0.70;;
72635;SDS011;60679;48.888;15.544;2023-06-24T04:39:03;2.67;;;0.60;;
72635;SDS011;60679;48.888;15.544;2023-06-24T04:41:29;2.40;;;0.40;;
72635;SDS011;60679;48.888;15.544;2023-06-24T04:43:54;2.53;;;0.50;;
72635;SDS011;60679;48.888;15.544;2023-06-24T04:46:20;2.58;;;0.50;;
72635;SDS011;60679;48.888;15.544;2023-06-24T04:48:46;2.37;;;0.40;;
72635;SDS011;60679;48.888;15.544;2023-06-24T04:51:12;3.00;;;0.70;;
72635;SDS011;60679;48.888;15.544;2023-06-24T04:53:37;7.57;;;0.83;;
72635;SDS011;60679;48.888;15.544;2023-06-24T04:56:03;3.07;;;0.70;;
72635;SDS011;60679;48.888;15.544;2023-06-24T04:58:28;2.80;;;0.77;;
72635;SDS011;60679;48.888;15.544;2023-06-24T05:00:53;2.50;;;0.50;;
72635;SDS011;60679;48.888;15.544;2023-06-24T05:03:19;3.40;;;0.90;;
72635;SDS011;60679;48.888;15.544;2023-06-24T05:05:44;2.87;;;0.60;;
72635;SDS011;60679;48.888;15.544;2023-06-24T05:08:10;2.30;;;0.50;;
72635;SDS011;60679;48.888;15.544;2023-06-24T05:10:35;2.97;;;0.63;;
72635;SDS011;60679;48.888;15.544;2023-06-24T05:13:00;2.73;;;0.70;;
72635;SDS011;60679;48.888;15.544;2023-06-24T05:15:28;2.50;;;0.57;;
72635;SDS011;60679;48.888;15.544;2023-06-24T05:17:54;2.60;;;0.50;;
72635;SDS011;60679;48.888;15.544;2023-06-24T05:20:20;3.90;;;0.75;;
72635;SDS011;60679;48.888;15.544;2023-06-24T05:22:49;2.85;;;0.75;;
72635;SDS011;60679;48.888;15.544;2023-06-24T05:25:14;3.13;;;0.80;;
72635;SDS011;60679;48.888;15.544;2023-06-24T05:27:39;2.63;;;0.60;;
72635;SDS011;60679;48.888;15.544;2023-06-24T05:30:05;2.87;;;0.80;;
72635;SDS011;60679;48.888;15.544;2023-06-24T05:32:31;2.97;;;0.87;;
72635;SDS011;60679;48.888;15.544;2023-06-24T05:34:57;3.60;;;0.90;;
72635;SDS011;60679;48.888;15.544;2023-06-24T05:37:22;2.80;;;0.73;;
72635;SDS011;60679;48.888;15.544;2023-06-24T05:39:47;2.90;;;0.60;;
72635;SDS011;60679;48.888;15.544;2023-06-24T05:42:13;2.60;;;0.60;;
72635;SDS011;60679;48.888;15.544;2023-06-24T05:44:38;2.88;;;0.95;;
72635;SDS011;60679;48.888;15.544;2023-06-24T05:47:04;2.63;;;0.53;;
72635;SDS011;60679;48.888;15.544;2023-06-24T05:49:29;3.40;;;0.97;;
72635;SDS011;60679;48.888;15.544;2023-06-24T05:51:55;2.80;;;0.73;;
72635;SDS011;60679;48.888;15.544;2023-06-24T05:54:21;2.60;;;0.50;;
72635;SDS011;60679;48.888;15.544;2023-06-24T05:56:46;4.60;;;0.83;;
72635;SDS011;60679;48.888;15.544;2023-06-24T05:59:12;2.70;;;0.57;;
72635;SDS011;60679;48.888;15.544;2023-06-24T06:01:37;2.63;;;0.60;;
72635;SDS011;60679;48.888;15.544;2023-06-24T06:04:02;2.60;;;0.60;;
72635;SDS011;60679;48.888;15.544;2023-06-24T06:06:28;4.15;;;1.00;;
72635;SDS011;60679;48.888;15.544;2023-06-24T06:08:53;3.53;;;1.47;;
72635;SDS011;60679;48.888;15.544;2023-06-24T06:11:19;2.90;;;0.75;;
72635;SDS011;60679;48.888;15.544;2023-06-24T06:13:45;2.90;;;0.80;;
72635;SDS011;60679;48.888;15.544;2023-06-24T06:16:10;2.60;;;0.53;;
72635;SDS011;60679;48.888;15.544;2023-06-24T06:18:35;3.43;;;1.10;;
72635;SDS011;60679;48.888;15.544;2023-06-24T06:21:01;2.80;;;0.50;;
72635;SDS011;60679;48.888;15.544;2023-06-24T06:23:26;2.77;;;0.70;;
72635;SDS011;60679;48.888;15.544;2023-06-24T06:25:52;3.83;;;0.65;;
72635;SDS011;60679;48.888;15.544;2023-06-24T06:28:17;3.20;;;1.20;;
72635;SDS011;60679;48.888;15.544;2023-06-24T06:30:43;3.20;;;0.95;;
72635;SDS011;60679;48.888;15.544;2023-06-24T06:33:08;5.53;;;1.27;;
72635;SDS011;60679;48.888;15.544;2023-06-24T06:35:34;3.07;;;0.83;;
72635;SDS011;60679;48.888;15.544;2023-06-24T06:37:59;3.57;;;1.17;;
72635;SDS011;60679;48.888;15.544;2023-06-24T06:40:25;3.70;;;1.27;;
72635;SDS011;60679;48.888;15.544;2023-06-24T06:42:52;3.88;;;1.17;;
72635;SDS011;60679;48.888;15.544;2023-06-24T06:45:17;3.83;;;1.47;;
72635;SDS011;60679;48.888;15.544;2023-06-24T06:47:43;3.40;;;0.95;;
72635;SDS011;60679;48.888;15.544;2023-06-24T06:50:09;2.93;;;1.00;;
72635;SDS011;60679;48.888;15.544;2023-06-24T06:52:34;3.15;;;0.95;;
72635;SDS011;60679;48.888;15.544;2023-06-24T06:55:00;3.77;;;1.27;;
72635;SDS011;60679;48.888;15.544;2023-06-24T06:57:25;3.50;;;1.03;;
72635;SDS011;60679;48.888;15.544;2023-06-24T06:59:51;3.50;;;0.90;;
72635;SDS011;60679;48.888;15.544;2023-06-24T07:02:17;2.90;;;0.80;;
72635;SDS011;60679;48.888;15.544;2023-06-24T07:04:43;3.60;;;1.20;;
72635;SDS011;60679;48.888;15.544;2023-06-24T07:07:09;4.50;;;1.00;;
72635;SDS011;60679;48.888;15.544;2023-06-24T07:09:34;3.67;;;1.20;;
72635;SDS011;60679;48.888;15.544;2023-06-24T07:12:00;3.07;;;0.87;;
72635;SDS011;60679;48.888;15.544;2023-06-24T07:14:25;3.55;;;1.05;;
72635;SDS011;60679;48.888;15.544;2023-06-24T07:16:50;4.00;;;1.50;;
72635;SDS011;60679;48.888;15.544;2023-06-24T07:19:16;4.20;;;1.53;;
72635;SDS011;60679;48.888;15.544;2023-06-24T07:21:41;3.97;;;1.07;;
72635;SDS011;60679;48.888;15.544;2023-06-24T07:24:07;3.53;;;1.00;;
72635;SDS011;60679;48.888;15.544;2023-06-24T07:26:32;4.47;;;1.30;;
72635;SDS011;60679;48.888;15.544;2023-06-24T07:28:58;3.23;;;1.00;;
72635;SDS011;60679;48.888;15.544;2023-06-24T07:31:25;3.05;;;0.95;;
72635;SDS011;60679;48.888;15.544;2023-06-24T07:33:50;3.10;;;0.70;;
72635;SDS011;60679;48.888;15.544;2023-06-24T07:36:19;4.20;;;1.47;;
72635;SDS011;60679;48.888;15.544;2023-06-24T07:38:44;4.20;;;1.80;;
72635;SDS011;60679;48.888;15.544;2023-06-24T07:41:12;10.27;;;1.40;;
72635;SDS011;60679;48.888;15.544;2023-06-24T07:43:38;5.83;;;1.10;;
72635;SDS011;60679;48.888;15.544;2023-06-24T07:46:04;3.90;;;1.33;;
72635;SDS011;60679;48.888;15.544;2023-06-24T07:48:29;4.23;;;1.23;;
72635;SDS011;60679;48.888;15.544;2023-06-24T07:50:54;4.57;;;1.53;;
72635;SDS011;60679;48.888;15.544;2023-06-24T07:53:20;4.27;;;1.30;;
72635;SDS011;60679;48.888;15.544;2023-06-24T07:55:45;5.40;;;2.13;;
72635;SDS011;60679;48.888;15.544;2023-06-24T07:58:10;7.67;;;1.33;;
72635;SDS011;60679;48.888;15.544;2023-06-24T08:03:46;3.30;;;0.93;;
72635;SDS011;60679;48.888;15.544;2023-06-24T08:06:15;4.43;;;1.20;;
72635;SDS011;60679;48.888;15.544;2023-06-24T08:08:40;4.37;;;1.60;;
72635;SDS011;60679;48.888;15.544;2023-06-24T08:11:05;4.33;;;1.30;;
72635;SDS011;60679;48.888;15.544;2023-06-24T08:13:38;3.53;;;1.03;;
72635;SDS011;60679;48.888;15.544;2023-06-24T08:16:04;3.97;;;1.15;;
72635;SDS011;60679;48.888;15.544;2023-06-24T08:18:30;6.00;;;2.05;;
72635;SDS011;60679;48.888;15.544;2023-06-24T08:20:56;4.03;;;1.40;;
72635;SDS011;60679;48.888;15.544;2023-06-24T08:23:21;3.80;;;1.48;;
72635;SDS011;60679;48.888;15.544;2023-06-24T08:25:47;4.03;;;1.23;;
72635;SDS011;60679;48.888;15.544;2023-06-24T08:28:12;5.67;;;1.73;;
72635;SDS011;60679;48.888;15.544;2023-06-24T08:30:40;4.70;;;1.60;;
72635;SDS011;60679;48.888;15.544;2023-06-24T08:33:06;3.85;;;1.35;;
72635;SDS011;60679;48.888;15.544;2023-06-24T08:35:31;4.90;;;1.63;;
72635;SDS011;60679;48.888;15.544;2023-06-24T08:37:57;4.63;;;1.53;;
72635;SDS011;60679;48.888;15.544;2023-06-24T08:40:22;4.53;;;1.93;;
72635;SDS011;60679;48.888;15.544;2023-06-24T08:42:48;3.97;;;1.67;;
72635;SDS011;60679;48.888;15.544;2023-06-24T08:45:13;4.20;;;2.10;;
72635;SDS011;60679;48.888;15.544;2023-06-24T08:47:39;4.00;;;1.20;;
72635;SDS011;60679;48.888;15.544;2023-06-24T08:50:08;3.53;;;1.15;;
72635;SDS011;60679;48.888;15.544;2023-06-24T08:52:37;5.15;;;2.22;;
72635;SDS011;60679;48.888;15.544;2023-06-24T08:55:06;4.00;;;1.65;;
72635;SDS011;60679;48.888;15.544;2023-06-24T08:57:38;4.40;;;1.55;;
72635;SDS011;60679;48.888;15.544;2023-06-24T09:00:04;4.90;;;1.30;;
72635;SDS011;60679;48.888;15.544;2023-06-24T09:02:36;5.03;;;2.42;;
72635;SDS011;60679;48.888;15.544;2023-06-24T09:05:04;5.97;;;1.70;;
72635;SDS011;60679;48.888;15.544;2023-06-24T09:07:30;3.63;;;0.95;;
72635;SDS011;60679;48.888;15.544;2023-06-24T09:09:55;5.93;;;1.67;;
72635;SDS011;60679;48.888;15.544;2023-06-24T09:12:21;4.65;;;1.88;;
72635;SDS011;60679;48.888;15.544;2023-06-24T09:14:50;4.37;;;1.50;;
72635;SDS011;60679;48.888;15.544;2023-06-24T09:17:16;5.15;;;1.48;;
72635;SDS011;60679;48.888;15.544;2023-06-24T09:19:42;4.28;;;1.63;;
72635;SDS011;60679;48.888;15.544;2023-06-24T09:22:08;3.70;;;1.37;;
72635;SDS011;60679;48.888;15.544;2023-06-24T09:24:41;5.82;;;1.90;;
72635;SDS011;60679;48.888;15.544;2023-06-24T09:27:07;4.00;;;1.83;;
72635;SDS011;60679;48.888;15.544;2023-06-24T09:29:35;5.10;;;2.57;;
72635;SDS011;60679;48.888;15.544;2023-06-24T09:32:04;4.20;;;1.50;;
72635;SDS011;60679;48.888;15.544;2023-06-24T09:34:30;6.30;;;2.13;;
72635;SDS011;60679;48.888;15.544;2023-06-24T09:36:56;5.85;;;2.03;;
72635;SDS011;60679;48.888;15.544;2023-06-24T09:39:23;4.32;;;2.03;;
72635;SDS011;60679;48.888;15.544;2023-06-24T09:42:00;8.05;;;2.63;;
72635;SDS011;60679;48.888;15.544;2023-06-24T09:44:26;4.37;;;1.60;;
72635;SDS011;60679;48.888;15.544;2023-06-24T09:46:53;4.65;;;1.92;;
72635;SDS011;60679;48.888;15.544;2023-06-24T09:49:19;4.25;;;1.67;;
72635;SDS011;60679;48.888;15.544;2023-06-24T09:51:46;3.90;;;1.40;;
72635;SDS011;60679;48.888;15.544;2023-06-24T09:54:13;5.57;;;2.33;;
72635;SDS011;60679;48.888;15.544;2023-06-24T09:56:43;4.68;;;1.88;;
72635;SDS011;60679;48.888;15.544;2023-06-24T09:59:11;4.35;;;1.95;;
72635;SDS011;60679;48.888;15.544;2023-06-24T10:01:41;4.20;;;1.37;;
72635;SDS011;60679;48.888;15.544;2023-06-24T10:04:09;6.47;;;2.40;;
72635;SDS011;60679;48.888;15.544;2023-06-24T10:06:38;5.70;;;2.42;;
72635;SDS011;60679;48.888;15.544;2023-06-24T10:09:04;5.33;;;2.43;;
72635;SDS011;60679;48.888;15.544;2023-06-24T10:11:29;4.60;;;1.75;;
72635;SDS011;60679;48.888;15.544;2023-06-24T10:13:55;3.87;;;1.30;;
72635;SDS011;60679;48.888;15.544;2023-06-24T10:16:21;5.05;;;1.63;;
72635;SDS011;60679;48.888;15.544;2023-06-24T10:18:47;5.53;;;2.42;;
72635;SDS011;60679;48.888;15.544;2023-06-24T10:21:14;3.97;;;1.67;;
72635;SDS011;60679;48.888;15.544;2023-06-24T10:23:52;4.47;;;2.07;;
72635;SDS011;60679;48.888;15.544;2023-06-24T10:26:28;3.95;;;1.55;;
72635;SDS011;60679;48.888;15.544;2023-06-24T10:34:20;3.40;;;1.20;;
72635;SDS011;60679;48.888;15.544;2023-06-24T10:47:38;4.40;;;1.50;;
72635;SDS011;60679;48.888;15.544;2023-06-24T10:50:08;4.07;;;1.90;;
72635;SDS011;60679;48.888;15.544;2023-06-24T10:52:39;4.35;;;1.80;;
72635;SDS011;60679;48.888;15.544;2023-06-24T10:55:06;3.70;;;1.52;;
72635;SDS011;60679;48.888;15.544;2023-06-24T10:57:32;3.58;;;1.13;;
72635;SDS011;60679;48.888;15.544;2023-06-24T10:59:57;3.73;;;1.60;;
72635;SDS011;60679;48.888;15.544;2023-06-24T11:02:24;4.63;;;2.00;;
72635;SDS011;60679;48.888;15.544;2023-06-24T11:04:55;3.75;;;1.40;;
72635;SDS011;60679;48.888;15.544;2023-06-24T11:07:25;4.57;;;2.05;;
72635;SDS011;60679;48.888;15.544;2023-06-24T11:09:54;3.83;;;1.20;;
72635;SDS011;60679;48.888;15.544;2023-06-24T11:12:24;3.92;;;1.23;;
72635;SDS011;60679;48.888;15.544;2023-06-24T11:14:55;4.00;;;1.60;;
72635;SDS011;60679;48.888;15.544;2023-06-24T11:17:22;4.63;;;1.80;;
72635;SDS011;60679;48.888;15.544;2023-06-24T11:19:47;4.30;;;1.67;;
72635;SDS011;60679;48.888;15.544;2023-06-24T11:22:13;4.60;;;2.10;;
72635;SDS011;60679;48.888;15.544;2023-06-24T11:24:38;4.20;;;1.97;;
72635;SDS011;60679;48.888;15.544;2023-06-24T11:27:04;3.53;;;1.02;;
72635;SDS011;60679;48.888;15.544;2023-06-24T11:29:30;7.07;;;2.30;;
72635;SDS011;60679;48.888;15.544;2023-06-24T11:31:57;4.70;;;2.00;;
72635;SDS011;60679;48.888;15.544;2023-06-24T11:34:23;4.97;;;2.15;;
72635;SDS011;60679;48.888;15.544;2023-06-24T11:36:48;4.97;;;1.70;;
72635;SDS011;60679;48.888;15.544;2023-06-24T11:41:50;7.82;;;3.65;;
72635;SDS011;60679;48.888;15.544;2023-06-24T11:44:17;6.17;;;2.37;;
72635;SDS011;60679;48.888;15.544;2023-06-24T11:46:43;4.32;;;1.42;;
72635;SDS011;60679;48.888;15.544;2023-06-24T11:49:09;5.10;;;1.97;;
72635;SDS011;60679;48.888;15.544;2023-06-24T11:51:35;4.70;;;2.40;;
72635;SDS011;60679;48.888;15.544;2023-06-24T11:54:01;3.83;;;1.40;;
72635;SDS011;60679;48.888;15.544;2023-06-24T11:56:34;5.57;;;1.73;;
72635;SDS011;60679;48.888;15.544;2023-06-24T11:59:03;4.43;;;1.83;;
72635;SDS011;60679;48.888;15.544;2023-06-24T12:01:32;4.40;;;1.90;;
72635;SDS011;60679;48.888;15.544;2023-06-24T12:04:01;5.07;;;2.08;;
72635;SDS011;60679;48.888;15.544;2023-06-24T12:06:34;4.23;;;1.70;;
72635;SDS011;60679;48.888;15.544;2023-06-24T12:08:59;5.05;;;1.60;;
72635;SDS011;60679;48.888;15.544;2023-06-24T12:11:25;4.93;;;1.93;;
72635;SDS011;60679;48.888;15.544;2023-06-24T12:13:50;4.50;;;1.67;;
72635;SDS011;60679;48.888;15.544;2023-06-24T12:16:15;7.57;;;1.60;;
72635;SDS011;60679;48.888;15.544;2023-06-24T12:18:41;4.57;;;1.83;;
72635;SDS011;60679;48.888;15.544;2023-06-24T12:21:06;6.43;;;2.70;;
72635;SDS011;60679;48.888;15.544;2023-06-24T12:23:32;5.33;;;2.30;;
72635;SDS011;60679;48.888;15.544;2023-06-24T12:25:57;4.87;;;1.93;;
72635;SDS011;60679;48.888;15.544;2023-06-24T12:28:22;4.70;;;1.80;;
72635;SDS011;60679;48.888;15.544;2023-06-24T12:30:48;5.60;;;2.13;;
72635;SDS011;60679;48.888;15.544;2023-06-24T12:33:13;4.80;;;2.20;;
72635;SDS011;60679;48.888;15.544;2023-06-24T12:35:38;6.37;;;2.13;;
72635;SDS011;60679;48.888;15.544;2023-06-24T12:38:04;5.53;;;2.20;;
72635;SDS011;60679;48.888;15.544;2023-06-24T12:40:29;5.07;;;2.10;;
72635;SDS011;60679;48.888;15.544;2023-06-24T12:42:54;5.13;;;1.60;;
72635;SDS011;60679;48.888;15.544;2023-06-24T12:45:22;5.40;;;2.75;;
72635;SDS011;60679;48.888;15.544;2023-06-24T12:47:47;4.67;;;1.80;;
72635;SDS011;60679;48.888;15.544;2023-06-24T12:50:15;5.22;;;2.03;;
72635;SDS011;60679;48.888;15.544;2023-06-24T12:52:40;8.90;;;3.00;;
72635;SDS011;60679;48.888;15.544;2023-06-24T12:55:06;4.70;;;2.23;;
72635;SDS011;60679;48.888;15.544;2023-06-24T12:57:32;5.60;;;2.10;;
72635;SDS011;60679;48.888;15.544;2023-06-24T12:59:57;5.27;;;2.53;;
72635;SDS011;60679;48.888;15.544;2023-06-24T13:02:22;4.53;;;1.65;;
72635;SDS011;60679;48.888;15.544;2023-06-24T13:04:48;5.30;;;2.53;;
72635;SDS011;60679;48.888;15.544;2023-06-24T13:07:13;5.03;;;2.07;;
72635;SDS011;60679;48.888;15.544;2023-06-24T13:09:39;3.87;;;1.50;;
72635;SDS011;60679;48.888;15.544;2023-06-24T13:12:04;4.50;;;1.98;;
72635;SDS011;60679;48.888;15.544;2023-06-24T13:14:30;3.70;;;1.70;;
72635;SDS011;60679;48.888;15.544;2023-06-24T13:16:55;4.73;;;1.87;;
72635;SDS011;60679;48.888;15.544;2023-06-24T13:19:21;7.17;;;1.97;;
72635;SDS011;60679;48.888;15.544;2023-06-24T13:21:46;5.22;;;2.53;;
72635;SDS011;60679;48.888;15.544;2023-06-24T13:24:12;6.13;;;2.20;;
72635;SDS011;60679;48.888;15.544;2023-06-24T13:26:37;5.03;;;1.90;;
72635;SDS011;60679;48.888;15.544;2023-06-24T13:29:03;6.40;;;2.43;;
72635;SDS011;60679;48.888;15.544;2023-06-24T13:31:29;5.40;;;1.70;;
72635;SDS011;60679;48.888;15.544;2023-06-24T13:33:54;3.72;;;1.40;;
72635;SDS011;60679;48.888;15.544;2023-06-24T13:36:32;5.07;;;2.30;;
72635;SDS011;60679;48.888;15.544;2023-06-24T13:39:00;6.93;;;2.13;;
72635;SDS011;60679;48.888;15.544;2023-06-24T13:41:27;5.27;;;2.10;;
72635;SDS011;60679;48.888;15.544;2023-06-24T13:43:55;5.22;;;2.00;;
72635;SDS011;60679;48.888;15.544;2023-06-24T13:46:21;4.20;;;1.70;;
72635;SDS011;60679;48.888;15.544;2023-06-24T13:48:47;5.38;;;2.17;;
72635;SDS011;60679;48.888;15.544;2023-06-24T13:51:14;4.85;;;2.35;;
72635;SDS011;60679;48.888;15.544;2023-06-24T13:53:40;4.50;;;1.90;;
72635;SDS011;60679;48.888;15.544;2023-06-24T13:56:05;6.80;;;1.83;;
72635;SDS011;60679;48.888;15.544;2023-06-24T13:58:31;5.87;;;2.67;;
72635;SDS011;60679;48.888;15.544;2023-06-24T14:00:56;6.67;;;2.67;;
72635;SDS011;60679;48.888;15.544;2023-06-24T14:03:21;4.53;;;1.97;;
72635;SDS011;60679;48.888;15.544;2023-06-24T14:05:47;5.67;;;2.00;;
72635;SDS011;60679;48.888;15.544;2023-06-24T14:08:12;5.57;;;2.47;;
72635;SDS011;60679;48.888;15.544;2023-06-24T14:10:38;7.03;;;2.27;;
72635;SDS011;60679;48.888;15.544;2023-06-24T14:13:03;7.13;;;2.27;;
72635;SDS011;60679;48.888;15.544;2023-06-24T14:15:30;4.68;;;2.13;;
72635;SDS011;60679;48.888;15.544;2023-06-24T14:17:55;4.53;;;1.87;;
72635;SDS011;60679;48.888;15.544;2023-06-24T14:20:21;6.80;;;1.95;;
72635;SDS011;60679;48.888;15.544;2023-06-24T14:22:47;5.47;;;1.63;;
72635;SDS011;60679;48.888;15.544;2023-06-24T14:25:12;4.57;;;1.93;;
72635;SDS011;60679;48.888;15.544;2023-06-24T14:27:37;4.53;;;2.30;;
72635;SDS011;60679;48.888;15.544;2023-06-24T14:30:04;5.57;;;2.30;;
72635;SDS011;60679;48.888;15.544;2023-06-24T14:32:30;4.88;;;1.75;;
72635;SDS011;60679;48.888;15.544;2023-06-24T14:34:55;6.53;;;1.27;;
72635;SDS011;60679;48.888;15.544;2023-06-24T14:37:20;5.63;;;2.40;;
72635;SDS011;60679;48.888;15.544;2023-06-24T14:39:46;5.83;;;2.53;;
72635;SDS011;60679;48.888;15.544;2023-06-24T14:42:11;6.97;;;1.90;;
72635;SDS011;60679;48.888;15.544;2023-06-24T14:44:36;4.80;;;1.73;;
72635;SDS011;60679;48.888;15.544;2023-06-24T14:47:02;4.97;;;1.97;;
72635;SDS011;60679;48.888;15.544;2023-06-24T14:49:27;5.25;;;2.17;;
72635;SDS011;60679;48.888;15.544;2023-06-24T14:51:53;4.93;;;1.83;;
72635;SDS011;60679;48.888;15.544;2023-06-24T14:54:18;4.30;;;1.80;;
72635;SDS011;60679;48.888;15.544;2023-06-24T14:56:44;3.93;;;1.70;;
72635;SDS011;60679;48.888;15.544;2023-06-24T14:59:10;4.55;;;2.10;;
72635;SDS011;60679;48.888;15.544;2023-06-24T15:01:36;5.97;;;1.90;;
72635;SDS011;60679;48.888;15.544;2023-06-24T15:04:01;5.55;;;2.17;;
72635;SDS011;60679;48.888;15.544;2023-06-24T15:06:26;5.60;;;2.00;;